sensor_id;sensor_type;location;lat;lon;timestamp;pressure;altitude;pressure_sealevel;temperature;humidity
13836;BME280;6988;52.614;13.500;2023-06-10T00:00:40;53781.97;;;-143.77;68.21
13836;BME280;6988;52.614;13.500;2023-06-10T00:05:33;53786.06;;;-143.77;68.45
13836;BME280;6988;52.614;13.500;2023-06-10T00:10:25;53808.63;;;-143.77;68.69
13836;BME280;6988;52.614;13.500;2023-06-10T00:15:17;53806.56;;;-143.77;68.85
13836;BME280;6988;52.614;13.500;2023-06-10T00:20:11;53802.47;;;-143.77;68.82
13836;BME280;6988;52.614;13.500;2023-06-10T00:25:05;53792.22;;;-143.77;69.45
13836;BME280;6988;52.614;13.500;2023-06-10T00:29:57;53835.31;;;-143.77;69.71
13836;BME280;6988;52.614;13.500;2023-06-10T00:34:49;53814.78;;;-143.77;70.03
13836;BME280;6988;52.614;13.500;2023-06-10T00:39:43;53823.00;;;-143.77;69.92
13836;BME280;6988;52.614;13.500;2023-06-10T00:44:34;53806.56;;;-143.77;70.05
13836;BME280;6988;52.614;13.500;2023-06-10T00:49:27;53843.50;;;-143.77;70.36
13836;BME280;6988;52.614;13.500;2023-06-10T00:54:19;53839.41;;;-143.77;70.18
13836;BME280;6988;52.614;13.500;2023-06-10T00:59:13;53839.41;;;-143.77;70.60
13836;BME280;6988;52.614;13.500;2023-06-10T01:04:06;53874.28;;;-143.77;70.61
13836;BME280;6988;52.614;13.500;2023-06-10T01:09:13;53864.03;;;-143.77;70.93
13836;BME280;6988;52.614;13.500;2023-06-10T01:14:13;53859.91;;;-143.77;71.05
13836;BME280;6988;52.614;13.500;2023-06-10T01:19:06;53855.81;;;-143.77;71.05
13836;BME280;6988;52.614;13.500;2023-06-10T01:23:59;53851.72;;;-143.77;71.40
13836;BME280;6988;52.614;13.500;2023-06-10T01:28:57;53884.53;;;-143.77;71.44
13836;BME280;6988;52.614;13.500;2023-06-10T01:33:52;53876.34;;;-143.77;71.60
13836;BME280;6988;52.614;13.500;2023-06-10T01:38:47;53870.19;;;-143.77;71.87
13836;BME280;6988;52.614;13.500;2023-06-10T01:43:42;53886.59;;;-143.77;72.24
13836;BME280;6988;52.614;13.500;2023-06-10T01:48:35;53894.78;;;-143.77;72.29
13836;BME280;6988;52.614;13.500;2023-06-10T01:53:27;53872.22;;;-143.77;72.34
13836;BME280;6988;52.614;13.500;2023-06-10T01:58:19;53868.13;;;-143.77;72.63
13836;BME280;6988;52.614;13.500;2023-06-10T02:03:12;53876.34;;;-143.77;72.68
13836;BME280;6988;52.614;13.500;2023-06-10T02:08:04;53872.22;;;-143.77;72.56
13836;BME280;6988;52.614;13.500;2023-06-10T02:12:57;53876.34;;;-143.77;72.99
13836;BME280;6988;52.614;13.500;2023-06-10T02:17:49;53894.78;;;-143.77;73.06
13836;BME280;6988;52.614;13.500;2023-06-10T02:22:42;53907.09;;;-143.77;73.36
13836;BME280;6988;52.614;13.500;2023-06-10T02:27:34;53894.78;;;-143.77;73.43
13836;BME280;6988;52.614;13.500;2023-06-10T02:32:26;53888.63;;;-143.77;73.63
13836;BME280;6988;52.614;13.500;2023-06-10T02:37:19;53917.38;;;-143.77;73.82
13836;BME280;6988;52.614;13.500;2023-06-10T02:42:13;53905.06;;;-143.77;73.85
13836;BME280;6988;52.614;13.500;2023-06-10T02:47:05;53898.91;;;-143.77;73.97
13836;BME280;6988;52.614;13.500;2023-06-10T02:51:59;53898.91;;;-143.77;73.99
13836;BME280;6988;52.614;13.500;2023-06-10T02:56:51;53909.16;;;-143.77;74.44
13836;BME280;6988;52.614;13.500;2023-06-10T03:01:50;53921.47;;;-143.77;74.62
13836;BME280;6988;52.614;13.500;2023-06-10T03:06:42;53917.38;;;-143.77;74.84
13836;BME280;6988;52.614;13.500;2023-06-10T03:11:42;53909.16;;;-143.77;74.88
13836;BME280;6988;52.614;13.500;2023-06-10T03:16:34;53948.13;;;-143.77;74.79
13836;BME280;6988;52.614;13.500;2023-06-10T03:21:28;53929.69;;;-143.77;74.84
13836;BME280;6988;52.614;13.500;2023-06-10T03:26:21;53927.63;;;-143.77;74.88
13836;BME280;6988;52.614;13.500;2023-06-10T03:31:15;53915.31;;;-143.77;74.91
13836;BME280;6988;52.614;13.500;2023-06-10T03:36:08;53911.22;;;-143.77;75.03
13836;BME280;6988;52.614;13.500;2023-06-10T03:41:03;53923.53;;;-143.77;74.91
13836;BME280;6988;52.614;13.500;2023-06-10T03:45:55;53931.72;;;-143.77;74.93
13836;BME280;6988;52.614;13.500;2023-06-10T03:50:47;53917.38;;;-143.77;74.93
13836;BME280;6988;52.614;13.500;2023-06-10T03:55:41;53907.09;;;-143.77;75.04
13836;BME280;6988;52.614;13.500;2023-06-10T04:00:35;53927.63;;;-143.77;74.98
13836;BME280;6988;52.614;13.500;2023-06-10T04:05:32;53917.38;;;-143.77;75.09
13836;BME280;6988;52.614;13.500;2023-06-10T04:10:24;53921.47;;;-143.77;74.87
13836;BME280;6988;52.614;13.500;2023-06-10T04:15:16;53909.16;;;-143.77;74.76
13836;BME280;6988;52.614;13.500;2023-06-10T04:20:11;53915.31;;;-143.77;74.47
13836;BME280;6988;52.614;13.500;2023-06-10T04:25:09;53925.56;;;-143.77;74.62
13836;BME280;6988;52.614;13.500;2023-06-10T04:30:01;53900.94;;;-143.77;74.06
13836;BME280;6988;52.614;13.500;2023-06-10T04:34:54;53917.38;;;-143.77;74.14
13836;BME280;6988;52.614;13.500;2023-06-10T04:39:47;53923.53;;;-143.77;73.89
13836;BME280;6988;52.614;13.500;2023-06-10T04:44:39;53911.22;;;-143.77;73.90
13836;BME280;6988;52.614;13.500;2023-06-10T04:49:32;53900.94;;;-143.77;73.72
13836;BME280;6988;52.614;13.500;2023-06-10T04:54:23;53886.59;;;-143.77;73.55
13836;BME280;6988;52.614;13.500;2023-06-10T04:59:17;53898.91;;;-143.77;73.49
13836;BME280;6988;52.614;13.500;2023-06-10T05:04:09;53853.75;;;-143.77;73.06
13836;BME280;6988;52.614;13.500;2023-06-10T05:09:00;53864.03;;;-143.77;73.12
13836;BME280;6988;52.614;13.500;2023-06-10T05:13:52;53874.28;;;-143.77;72.72
13836;BME280;6988;52.614;13.500;2023-06-10T05:18:46;53876.34;;;-143.77;72.77
13836;BME280;6988;52.614;13.500;2023-06-10T05:23:37;53847.59;;;-143.77;72.17
13836;BME280;6988;52.614;13.500;2023-06-10T05:28:29;53855.81;;;-143.77;72.24
13836;BME280;6988;52.614;13.500;2023-06-10T05:33:21;53823.00;;;-143.77;70.69
13836;BME280;6988;52.614;13.500;2023-06-10T05:38:14;53812.72;;;-143.77;70.78
13836;BME280;6988;52.614;13.500;2023-06-10T05:43:06;53818.88;;;-143.77;70.20
13836;BME280;6988;52.614;13.500;2023-06-10T05:48:00;53833.25;;;-143.77;69.70
13836;BME280;6988;52.614;13.500;2023-06-10T05:52:51;53839.41;;;-143.77;69.74
13836;BME280;6988;52.614;13.500;2023-06-10T05:57:45;53835.31;;;-143.77;69.42
13836;BME280;6988;52.614;13.500;2023-06-10T06:02:37;53812.72;;;-143.77;68.99
13836;BME280;6988;52.614;13.500;2023-06-10T06:07:30;53804.53;;;-143.77;68.88
13836;BME280;6988;52.614;13.500;2023-06-10T06:12:21;53786.06;;;-143.77;68.09
13836;BME280;6988;52.614;13.500;2023-06-10T06:17:15;53761.44;;;-143.77;67.57
13836;BME280;6988;52.614;13.500;2023-06-10T06:22:07;53761.44;;;-143.77;67.79
13836;BME280;6988;52.614;13.500;2023-06-10T06:26:59;53753.25;;;-143.77;67.09
13836;BME280;6988;52.614;13.500;2023-06-10T06:31:50;53640.41;;;-143.77;65.51
13836;BME280;6988;52.614;13.500;2023-06-10T06:36:44;53533.72;;;-143.77;63.23
13836;BME280;6988;52.614;13.500;2023-06-10T06:41:35;53515.25;;;-143.77;61.63
13836;BME280;6988;52.614;13.500;2023-06-10T06:46:27;53482.44;;;-143.77;60.14
13836;BME280;6988;52.614;13.500;2023-06-10T06:51:20;53480.38;;;-143.77;58.56
13836;BME280;6988;52.614;13.500;2023-06-10T06:56:13;53605.53;;;-143.77;58.34
13836;BME280;6988;52.614;13.500;2023-06-10T07:01:05;53589.13;;;-143.77;58.37
13836;BME280;6988;52.614;13.500;2023-06-10T07:05:57;53437.31;;;-143.77;58.78
13836;BME280;6988;52.614;13.500;2023-06-10T07:10:49;53572.72;;;-143.77;57.87
13836;BME280;6988;52.614;13.500;2023-06-10T07:15:42;53574.75;;;-143.77;58.62
13836;BME280;6988;52.614;13.500;2023-06-10T07:20:34;53482.44;;;-143.77;57.47
13836;BME280;6988;52.614;13.500;2023-06-10T07:25:26;53451.66;;;-143.77;58.22
13836;BME280;6988;52.614;13.500;2023-06-10T07:30:18;53523.47;;;-143.77;55.95
13836;BME280;6988;52.614;13.500;2023-06-10T07:35:13;53494.75;;;-143.77;54.69
13836;BME280;6988;52.614;13.500;2023-06-10T07:40:07;53463.97;;;-143.77;56.13
13836;BME280;6988;52.614;13.500;2023-06-10T07:44:59;53334.75;;;-143.77;54.66
13836;BME280;6988;52.614;13.500;2023-06-10T07:49:51;53439.38;;;-143.77;53.15
13836;BME280;6988;52.614;13.500;2023-06-10T07:54:44;53330.63;;;-143.77;52.42
13836;BME280;6988;52.614;13.500;2023-06-10T07:59:37;53322.44;;;-143.77;53.54
13836;BME280;6988;52.614;13.500;2023-06-10T08:04:29;53445.50;;;-143.77;52.00
13836;BME280;6988;52.614;13.500;2023-06-10T08:09:22;53449.63;;;-143.77;52.50
13836;BME280;6988;52.614;13.500;2023-06-10T08:14:16;53470.13;;;-143.77;54.38
13836;BME280;6988;52.614;13.500;2023-06-10T08:19:08;53480.38;;;-143.77;54.89
13836;BME280;6988;52.614;13.500;2023-06-10T08:24:00;53474.25;;;-143.77;54.58
13836;BME280;6988;52.614;13.500;2023-06-10T08:28:52;53511.16;;;-143.77;55.54
13836;BME280;6988;52.614;13.500;2023-06-10T08:33:46;53509.09;;;-143.77;55.92
13836;BME280;6988;52.614;13.500;2023-06-10T08:38:37;53502.97;;;-143.77;54.63
13836;BME280;6988;52.614;13.500;2023-06-10T08:43:34;53527.56;;;-143.77;56.49
13836;BME280;6988;52.614;13.500;2023-06-10T08:48:30;53554.25;;;-143.77;56.69
13836;BME280;6988;52.614;13.500;2023-06-10T08:53:26;53582.97;;;-143.77;57.27
13836;BME280;6988;52.614;13.500;2023-06-10T08:58:20;53568.59;;;-143.77;57.51
13836;BME280;6988;52.614;13.500;2023-06-10T09:03:12;53578.84;;;-143.77;58.22
13836;BME280;6988;52.614;13.500;2023-06-10T09:08:06;53593.22;;;-143.77;59.25
13836;BME280;6988;52.614;13.500;2023-06-10T09:13:01;53601.44;;;-143.77;62.08
13836;BME280;6988;52.614;13.500;2023-06-10T09:17:53;53630.16;;;-143.77;64.55
13836;BME280;6988;52.614;13.500;2023-06-10T09:22:44;53611.69;;;-143.77;65.45
13836;BME280;6988;52.614;13.500;2023-06-10T09:27:45;53642.47;;;-143.77;65.27
13836;BME280;6988;52.614;13.500;2023-06-10T09:32:42;53617.84;;;-143.77;66.46
13836;BME280;6988;52.614;13.500;2023-06-10T09:37:38;53621.94;;;-143.77;66.07
13836;BME280;6988;52.614;13.500;2023-06-10T09:42:33;53630.16;;;-143.77;66.84
13836;BME280;6988;52.614;13.500;2023-06-10T09:47:25;53613.72;;;-143.77;65.89
13836;BME280;6988;52.614;13.500;2023-06-10T09:52:23;53626.03;;;-143.77;66.99
13836;BME280;6988;52.614;13.500;2023-06-10T09:57:17;53615.78;;;-143.77;67.47
13836;BME280;6988;52.614;13.500;2023-06-10T10:02:14;53617.84;;;-143.77;67.47
13836;BME280;6988;52.614;13.500;2023-06-10T10:07:07;53630.16;;;-143.77;63.37
13836;BME280;6988;52.614;13.500;2023-06-10T10:12:01;53660.91;;;-143.77;62.42
13836;BME280;6988;52.614;13.500;2023-06-10T10:16:55;53679.38;;;-143.77;63.52
13836;BME280;6988;52.614;13.500;2023-06-10T10:21:53;53706.06;;;-143.77;65.83
13836;BME280;6988;52.614;13.500;2023-06-10T10:26:49;53712.22;;;-143.77;65.00
13836;BME280;6988;52.614;13.500;2023-06-10T10:31:44;53730.66;;;-143.77;66.34
13836;BME280;6988;52.614;13.500;2023-06-10T10:36:37;53724.50;;;-143.77;67.46
13836;BME280;6988;52.614;13.500;2023-06-10T10:41:31;53708.09;;;-143.77;67.52
13836;BME280;6988;52.614;13.500;2023-06-10T10:46:23;53720.41;;;-143.77;65.58
13836;BME280;6988;52.614;13.500;2023-06-10T10:51:17;53736.81;;;-143.77;64.83
13836;BME280;6988;52.614;13.500;2023-06-10T10:56:14;53734.78;;;-143.77;68.59
13836;BME280;6988;52.614;13.500;2023-06-10T11:01:13;53695.78;;;-143.77;69.11
13836;BME280;6988;52.614;13.500;2023-06-10T11:06:13;53615.78;;;-143.77;71.46
13836;BME280;6988;52.614;13.500;2023-06-10T11:11:21;53552.19;;;-143.77;70.61
13836;BME280;6988;52.614;13.500;2023-06-10T11:16:20;53595.28;;;-143.77;70.78
13836;BME280;6988;52.614;13.500;2023-06-10T11:21:11;53363.47;;;-143.77;69.61
13836;BME280;6988;52.614;13.500;2023-06-10T11:26:19;53361.41;;;-143.77;67.87
13836;BME280;6988;52.614;13.500;2023-06-10T11:31:19;53289.63;;;-143.77;65.24
13836;BME280;6988;52.614;13.500;2023-06-10T11:36:11;53228.06;;;-143.77;64.05
13836;BME280;6988;52.614;13.500;2023-06-10T11:41:04;53215.78;;;-143.77;59.29
13836;BME280;6988;52.614;13.500;2023-06-10T11:45:57;53236.28;;;-143.77;53.45
13836;BME280;6988;52.614;13.500;2023-06-10T11:50:52;53102.94;;;-143.77;55.49
13836;BME280;6988;52.614;13.500;2023-06-10T11:55:46;53178.84;;;-143.77;46.74
13836;BME280;6988;52.614;13.500;2023-06-10T12:00:45;53211.66;;;-143.77;47.88
13836;BME280;6988;52.614;13.500;2023-06-10T12:05:38;53203.47;;;-143.77;48.46
13836;BME280;6988;52.614;13.500;2023-06-10T12:10:30;53185.00;;;-143.77;46.75
13836;BME280;6988;52.614;13.500;2023-06-10T12:15:24;53020.91;;;-143.77;46.15
13836;BME280;6988;52.614;13.500;2023-06-10T12:20:26;53006.53;;;-143.77;44.16
13836;BME280;6988;52.614;13.500;2023-06-10T12:25:25;52961.41;;;-143.77;44.35
13836;BME280;6988;52.614;13.500;2023-06-10T12:30:19;52949.13;;;-143.77;43.04
13836;BME280;6988;52.614;13.500;2023-06-10T12:35:15;52875.28;;;-143.77;43.57
13836;BME280;6988;52.614;13.500;2023-06-10T12:40:09;52953.22;;;-143.77;42.08
13836;BME280;6988;52.614;13.500;2023-06-10T12:45:03;52873.22;;;-143.77;41.25
13836;BME280;6988;52.614;13.500;2023-06-10T12:49:57;52901.94;;;-143.77;40.57
13836;BME280;6988;52.614;13.500;2023-06-10T12:54:49;53012.69;;;-143.77;41.93
13836;BME280;6988;52.614;13.500;2023-06-10T12:59:42;52906.03;;;-143.77;42.03
13836;BME280;6988;52.614;13.500;2023-06-10T13:04:43;52887.56;;;-143.77;40.29
13836;BME280;6988;52.614;13.500;2023-06-10T13:09:35;52844.50;;;-143.77;39.17
13836;BME280;6988;52.614;13.500;2023-06-10T13:14:27;52844.50;;;-143.77;40.70
13836;BME280;6988;52.614;13.500;2023-06-10T13:19:19;52856.81;;;-143.77;39.35
13836;BME280;6988;52.614;13.500;2023-06-10T13:24:13;52846.56;;;-143.77;39.76
13836;BME280;6988;52.614;13.500;2023-06-10T13:29:05;52854.75;;;-143.77;38.90
13836;BME280;6988;52.614;13.500;2023-06-10T13:33:58;52869.13;;;-143.77;38.65
13836;BME280;6988;52.614;13.500;2023-06-10T13:38:50;52836.31;;;-143.77;37.55
13836;BME280;6988;52.614;13.500;2023-06-10T13:43:43;52875.28;;;-143.77;37.96
13836;BME280;6988;52.614;13.500;2023-06-10T13:48:35;52899.88;;;-143.77;38.81
13836;BME280;6988;52.614;13.500;2023-06-10T13:53:27;52922.44;;;-143.77;37.78
13836;BME280;6988;52.614;13.500;2023-06-10T13:58:18;52953.22;;;-143.77;37.46
13836;BME280;6988;52.614;13.500;2023-06-10T14:03:11;52912.19;;;-143.77;37.32
13836;BME280;6988;52.614;13.500;2023-06-10T14:08:04;52920.41;;;-143.77;36.10
13836;BME280;6988;52.614;13.500;2023-06-10T14:12:57;52965.53;;;-143.77;35.84
13836;BME280;6988;52.614;13.500;2023-06-10T14:17:48;52940.91;;;-143.77;35.26
13836;BME280;6988;52.614;13.500;2023-06-10T14:22:41;52936.81;;;-143.77;34.89
13836;BME280;6988;52.614;13.500;2023-06-10T14:27:33;52936.81;;;-143.77;34.47
13836;BME280;6988;52.614;13.500;2023-06-10T14:32:25;52955.25;;;-143.77;33.86
13836;BME280;6988;52.614;13.500;2023-06-10T14:37:17;52977.81;;;-143.77;34.75
13836;BME280;6988;52.614;13.500;2023-06-10T14:42:10;52961.41;;;-143.77;34.38
13836;BME280;6988;52.614;13.500;2023-06-10T14:47:02;52908.09;;;-143.77;33.32
13836;BME280;6988;52.614;13.500;2023-06-10T14:51:54;52916.28;;;-143.77;34.25
13836;BME280;6988;52.614;13.500;2023-06-10T14:56:45;52957.31;;;-143.77;34.79
13836;BME280;6988;52.614;13.500;2023-06-10T15:01:39;52967.56;;;-143.77;34.43
13836;BME280;6988;52.614;13.500;2023-06-10T15:06:31;53043.47;;;-143.77;35.29
13836;BME280;6988;52.614;13.500;2023-06-10T15:11:22;53045.50;;;-143.77;35.83
13836;BME280;6988;52.614;13.500;2023-06-10T15:16:14;53084.50;;;-143.77;35.38
13836;BME280;6988;52.614;13.500;2023-06-10T15:21:07;53098.84;;;-143.77;36.87
13836;BME280;6988;52.614;13.500;2023-06-10T15:25:59;53096.78;;;-143.77;35.56
13836;BME280;6988;52.614;13.500;2023-06-10T15:30:51;53125.50;;;-143.77;35.82
13836;BME280;6988;52.614;13.500;2023-06-10T15:35:43;53078.34;;;-143.77;36.88
13836;BME280;6988;52.614;13.500;2023-06-10T15:40:36;53129.63;;;-143.77;37.33
13836;BME280;6988;52.614;13.500;2023-06-10T15:45:28;53082.44;;;-143.77;37.75
13836;BME280;6988;52.614;13.500;2023-06-10T15:50:20;53086.53;;;-143.77;36.68
13836;BME280;6988;52.614;13.500;2023-06-10T15:55:11;53068.09;;;-143.77;37.57
13836;BME280;6988;52.614;13.500;2023-06-10T16:00:06;53078.34;;;-143.77;35.14
13836;BME280;6988;52.614;13.500;2023-06-10T16:04:59;53018.84;;;-143.77;34.78
13836;BME280;6988;52.614;13.500;2023-06-10T16:09:51;53033.22;;;-143.77;33.87
13836;BME280;6988;52.614;13.500;2023-06-10T16:14:43;53049.63;;;-143.77;33.22
13836;BME280;6988;52.614;13.500;2023-06-10T16:19:36;53076.28;;;-143.77;32.62
13836;BME280;6988;52.614;13.500;2023-06-10T16:24:28;53096.78;;;-143.77;33.31
13836;BME280;6988;52.614;13.500;2023-06-10T16:29:20;53137.81;;;-143.77;31.95
13836;BME280;6988;52.614;13.500;2023-06-10T16:34:12;53150.13;;;-143.77;33.01
13836;BME280;6988;52.614;13.500;2023-06-10T16:39:05;53187.06;;;-143.77;32.82
13836;BME280;6988;52.614;13.500;2023-06-10T16:43:56;53176.78;;;-143.77;32.94
13836;BME280;6988;52.614;13.500;2023-06-10T16:48:48;53191.16;;;-143.77;33.81
13836;BME280;6988;52.614;13.500;2023-06-10T16:53:40;53191.16;;;-143.77;34.33
13836;BME280;6988;52.614;13.500;2023-06-10T16:58:33;53187.06;;;-143.77;34.46
13836;BME280;6988;52.614;13.500;2023-06-10T17:03:25;53211.66;;;-143.77;34.69
13836;BME280;6988;52.614;13.500;2023-06-10T17:08:17;53238.34;;;-143.77;34.82
13836;BME280;6988;52.614;13.500;2023-06-10T17:13:09;53226.03;;;-143.77;34.52
13836;BME280;6988;52.614;13.500;2023-06-10T17:18:03;53226.03;;;-143.77;34.23
13836;BME280;6988;52.614;13.500;2023-06-10T17:22:54;53273.19;;;-143.77;35.40
13836;BME280;6988;52.614;13.500;2023-06-10T17:27:46;53265.00;;;-143.77;36.17
13836;BME280;6988;52.614;13.500;2023-06-10T17:32:39;53256.78;;;-143.77;36.92
13836;BME280;6988;52.614;13.500;2023-06-10T17:37:32;53306.03;;;-143.77;37.92
13836;BME280;6988;52.614;13.500;2023-06-10T17:42:24;53379.88;;;-143.77;38.15
13836;BME280;6988;52.614;13.500;2023-06-10T17:47:15;53310.13;;;-143.77;38.56
13836;BME280;6988;52.614;13.500;2023-06-10T17:52:07;53324.50;;;-143.77;38.05
13836;BME280;6988;52.614;13.500;2023-06-10T17:57:00;53316.28;;;-143.77;38.20
13836;BME280;6988;52.614;13.500;2023-06-10T18:01:52;53340.91;;;-143.77;38.95
13836;BME280;6988;52.614;13.500;2023-06-10T18:06:44;53345.00;;;-143.77;38.32
13836;BME280;6988;52.614;13.500;2023-06-10T18:11:36;53349.09;;;-143.77;38.66
13836;BME280;6988;52.614;13.500;2023-06-10T18:16:29;53318.34;;;-143.77;37.74
13836;BME280;6988;52.614;13.500;2023-06-10T18:21:21;53375.78;;;-143.77;38.38
13836;BME280;6988;52.614;13.500;2023-06-10T18:26:13;53392.19;;;-143.77;38.71
13836;BME280;6988;52.614;13.500;2023-06-10T18:31:05;53361.41;;;-143.77;39.08
13836;BME280;6988;52.614;13.500;2023-06-10T18:35:58;53400.38;;;-143.77;39.47
13836;BME280;6988;52.614;13.500;2023-06-10T18:40:50;53377.81;;;-143.77;40.05
13836;BME280;6988;52.614;13.500;2023-06-10T18:45:42;53408.59;;;-143.77;40.58
13836;BME280;6988;52.614;13.500;2023-06-10T18:50:34;53412.69;;;-143.77;40.99
13836;BME280;6988;52.614;13.500;2023-06-10T18:55:27;53433.22;;;-143.77;41.27
13836;BME280;6988;52.614;13.500;2023-06-10T19:00:19;53425.00;;;-143.77;42.18
13836;BME280;6988;52.614;13.500;2023-06-10T19:05:11;53425.00;;;-143.77;42.32
13836;BME280;6988;52.614;13.500;2023-06-10T19:10:06;53443.47;;;-143.77;42.32
13836;BME280;6988;52.614;13.500;2023-06-10T19:14:59;53457.81;;;-143.77;43.27
13836;BME280;6988;52.614;13.500;2023-06-10T19:19:51;53445.50;;;-143.77;43.27
13836;BME280;6988;52.614;13.500;2023-06-10T19:24:43;53451.66;;;-143.77;43.58
13836;BME280;6988;52.614;13.500;2023-06-10T19:29:37;53478.34;;;-143.77;43.78
13836;BME280;6988;52.614;13.500;2023-06-10T19:34:30;53482.44;;;-143.77;43.92
13836;BME280;6988;52.614;13.500;2023-06-10T19:39:21;53474.25;;;-143.77;43.91
13836;BME280;6988;52.614;13.500;2023-06-10T19:44:13;53482.44;;;-143.77;43.96
13836;BME280;6988;52.614;13.500;2023-06-10T19:49:05;53505.00;;;-143.77;45.02
13836;BME280;6988;52.614;13.500;2023-06-10T19:53:58;53496.81;;;-143.77;44.50
13836;BME280;6988;52.614;13.500;2023-06-10T19:58:50;53517.31;;;-143.77;44.64
13836;BME280;6988;52.614;13.500;2023-06-10T20:03:42;53556.28;;;-143.77;44.61
13836;BME280;6988;52.614;13.500;2023-06-10T20:08:34;53525.53;;;-143.77;44.40
13836;BME280;6988;52.614;13.500;2023-06-10T20:13:27;53597.31;;;-143.77;44.71
13836;BME280;6988;52.614;13.500;2023-06-10T20:18:19;53548.09;;;-143.77;44.57
13836;BME280;6988;52.614;13.500;2023-06-10T20:23:11;53570.66;;;-143.77;44.57
13836;BME280;6988;52.614;13.500;2023-06-10T20:28:03;53564.50;;;-143.77;44.62
13836;BME280;6988;52.614;13.500;2023-06-10T20:32:56;53564.50;;;-143.77;43.91
13836;BME280;6988;52.614;13.500;2023-06-10T20:37:48;53568.59;;;-143.77;43.99
13836;BME280;6988;52.614;13.500;2023-06-10T20:42:40;53609.63;;;-143.77;44.25
13836;BME280;6988;52.614;13.500;2023-06-10T20:47:32;53609.63;;;-143.77;44.77
13836;BME280;6988;52.614;13.500;2023-06-10T20:52:25;53609.63;;;-143.77;45.38
13836;BME280;6988;52.614;13.500;2023-06-10T20:57:17;53593.22;;;-143.77;45.27
13836;BME280;6988;52.614;13.500;2023-06-10T21:02:09;53648.59;;;-143.77;45.76
13836;BME280;6988;52.614;13.500;2023-06-10T21:07:02;53634.25;;;-143.77;45.42
13836;BME280;6988;52.614;13.500;2023-06-10T21:11:55;53617.84;;;-143.77;46.22
13836;BME280;6988;52.614;13.500;2023-06-10T21:16:46;53679.38;;;-143.77;46.03
13836;BME280;6988;52.614;13.500;2023-06-10T21:21:38;53681.44;;;-143.77;47.33
13836;BME280;6988;52.614;13.500;2023-06-10T21:26:30;53695.78;;;-143.77;47.32
13836;BME280;6988;52.614;13.500;2023-06-10T21:31:24;53685.53;;;-143.77;46.73
13836;BME280;6988;52.614;13.500;2023-06-10T21:36:16;53699.91;;;-143.77;46.43
13836;BME280;6988;52.614;13.500;2023-06-10T21:41:08;53712.22;;;-143.77;46.82
13836;BME280;6988;52.614;13.500;2023-06-10T22:03:38;53745.03;;;-143.77;48.37
13836;BME280;6988;52.614;13.500;2023-06-10T22:08:30;53730.66;;;-143.77;49.23
13836;BME280;6988;52.614;13.500;2023-06-10T22:13:22;53730.66;;;-143.77;49.97
13836;BME280;6988;52.614;13.500;2023-06-10T22:18:14;53724.50;;;-143.77;50.04
13836;BME280;6988;52.614;13.500;2023-06-10T22:23:07;53759.41;;;-143.77;49.20
13836;BME280;6988;52.614;13.500;2023-06-10T22:27:59;53767.59;;;-143.77;49.52
13836;BME280;6988;52.614;13.500;2023-06-10T22:32:51;53765.53;;;-143.77;50.05
13836;BME280;6988;52.614;13.500;2023-06-10T22:37:43;53757.34;;;-143.77;50.30
13836;BME280;6988;52.614;13.500;2023-06-10T22:42:36;53759.41;;;-143.77;50.68
13836;BME280;6988;52.614;13.500;2023-06-10T22:47:28;53794.28;;;-143.77;50.39
13836;BME280;6988;52.614;13.500;2023-06-10T22:52:20;53769.66;;;-143.77;50.70
13836;BME280;6988;52.614;13.500;2023-06-10T22:57:12;53790.16;;;-143.77;50.77
13836;BME280;6988;52.614;13.500;2023-06-10T23:02:05;53802.47;;;-143.77;50.74
13836;BME280;6988;52.614;13.500;2023-06-10T23:06:57;53802.47;;;-143.77;50.56
13836;BME280;6988;52.614;13.500;2023-06-10T23:11:50;53792.22;;;-143.77;50.43
13836;BME280;6988;52.614;13.500;2023-06-10T23:16:42;53814.78;;;-143.77;49.06
13836;BME280;6988;52.614;13.500;2023-06-10T23:21:38;53784.00;;;-143.77;51.08
13836;BME280;6988;52.614;13.500;2023-06-10T23:26:33;53802.47;;;-143.77;51.58
13836;BME280;6988;52.614;13.500;2023-06-10T23:31:25;53802.47;;;-143.77;51.53
13836;BME280;6988;52.614;13.500;2023-06-10T23:36:17;53835.31;;;-143.77;51.63
13836;BME280;6988;52.614;13.500;2023-06-10T23:41:12;53814.78;;;-143.77;52.08
13836;BME280;6988;52.614;13.500;2023-06-10T23:46:04;53845.56;;;-143.77;52.09
13836;BME280;6988;52.614;13.500;2023-06-10T23:50:57;53818.88;;;-143.77;51.99
13836;BME280;6988;52.614;13.500;2023-06-10T23:55:50;53851.72;;;-143.77;52.42
